Time;durP1;ratioP1;P1;durP2;ratioP2;P2;SDS_P1;SDS_P2;PMS_P1;PMS_P2;Temp;Humidity;BMP_temperature;BMP_pressure;BME280_temperature;BME280_humidity;BME280_pressure;Samples;Min_cycle;Max_cycle;Signal;HPM_P1;HPM_P2
2020/12/26 00:00:52;;;;;;;165.02;38.00;;;;;;;5.70;94.22;99625.47;6195592;23;20044;-68
2020/12/26 00:03:18;;;;;;;217.30;41.13;;;;;;;5.76;94.71;99627.56;6195338;23;20005;-67
2020/12/26 00:05:46;;;;;;;168.48;39.50;;;;;;;5.89;93.80;99629.97;6194793;23;20175;-68
2020/12/26 00:08:11;;;;;;;175.32;47.78;;;;;;;5.87;94.16;99631.88;6195560;23;20121;-67
2020/12/26 00:10:36;;;;;;;309.85;58.45;;;;;;;5.68;94.16;99621.31;6194526;23;20269;-68
2020/12/26 00:13:02;;;;;;;286.90;57.67;;;;;;;5.82;94.38;99625.38;6195792;23;20005;-68
2020/12/26 00:15:28;;;;;;;289.27;53.92;;;;;;;5.81;93.85;99637.66;6193844;23;20203;-67
2020/12/26 00:17:53;;;;;;;170.68;50.67;;;;;;;5.95;94.33;99639.94;6195710;23;20009;-67
2020/12/26 00:20:19;;;;;;;225.18;49.13;;;;;;;5.89;93.87;99637.00;6193526;23;20005;-68
2020/12/26 00:22:45;;;;;;;234.80;45.95;;;;;;;5.90;94.13;99642.16;6194593;23;20016;-67
2020/12/26 00:25:11;;;;;;;226.90;48.70;;;;;;;5.83;94.19;99645.41;6193721;23;19997;-68
2020/12/26 00:27:37;;;;;;;156.57;46.38;;;;;;;5.72;94.50;99648.97;6195398;23;20032;-68
2020/12/26 00:30:04;;;;;;;242.40;52.72;;;;;;;5.75;93.91;99630.31;6193999;23;20048;-68
2020/12/26 00:32:29;;;;;;;217.95;49.83;;;;;;;5.83;93.92;99646.25;6195802;23;20022;-68
2020/12/26 00:34:54;;;;;;;210.00;44.78;;;;;;;5.74;94.19;99644.44;6194141;23;20037;-69
2020/12/26 00:37:20;;;;;;;190.85;42.80;;;;;;;5.62;94.65;99641.06;6195371;23;20011;-69
2020/12/26 00:39:45;;;;;;;263.50;49.00;;;;;;;5.66;94.29;99639.84;6193697;23;20015;-68
2020/12/26 00:42:11;;;;;;;177.37;45.73;;;;;;;5.44;95.48;99650.53;6195328;23;20290;-69
2020/12/26 00:44:36;;;;;;;213.40;50.40;;;;;;;5.38;96.33;99651.91;6194305;23;20263;-69
2020/12/26 00:47:03;;;;;;;207.02;48.53;;;;;;;5.45;96.03;99616.28;6194655;23;20001;-68
2020/12/26 00:49:28;;;;;;;198.88;51.30;;;;;;;5.54;96.27;99638.28;6194699;23;20291;-67
2020/12/26 00:51:54;;;;;;;207.30;48.92;;;;;;;5.66;95.86;99633.75;6194103;23;20016;-67
2020/12/26 00:54:19;;;;;;;168.15;46.45;;;;;;;5.75;95.23;99625.91;6195466;23;19997;-67
2020/12/26 00:56:45;;;;;;;248.18;49.30;;;;;;;5.81;94.02;99632.41;6193629;23;20053;-68
2020/12/26 00:59:10;;;;;;;242.38;49.42;;;;;;;5.73;94.86;99627.00;6195268;23;19997;-67
2020/12/26 01:01:36;;;;;;;183.20;47.85;;;;;;;5.65;95.30;99629.47;6194138;23;20007;-68
2020/12/26 01:04:01;;;;;;;185.90;46.70;;;;;;;5.72;95.16;99634.06;6195321;23;20001;-67
2020/12/26 01:06:27;;;;;;;179.50;47.63;;;;;;;5.81;94.71;99649.97;6194017;23;20287;-68
2020/12/26 01:08:52;;;;;;;144.48;47.05;;;;;;;6.03;93.65;99640.09;6195282;23;20001;-68
2020/12/26 01:11:17;;;;;;;149.25;45.17;;;;;;;6.13;92.92;99647.16;6194080;23;20000;-67
2020/12/26 01:13:43;;;;;;;154.82;44.35;;;;;;;5.95;92.82;99642.56;6195016;23;20021;-68
2020/12/26 01:16:14;;;;;;;216.73;42.85;;;;;;;5.80;93.23;99649.16;6193462;23;20007;-68
2020/12/26 01:18:40;;;;;;;144.75;37.33;;;;;;;6.01;93.63;99642.03;6194783;23;20001;-68
2020/12/26 01:21:07;;;;;;;146.65;34.78;;;;;;;5.88;92.33;99651.09;6193386;23;20015;-68
2020/12/26 01:23:35;;;;;;;166.10;36.08;;;;;;;5.75;93.61;99652.16;6194926;23;20207;-67
2020/12/26 01:26:01;;;;;;;149.15;41.03;;;;;;;5.84;93.25;99647.09;6193546;23;20052;-67
2020/12/26 01:28:27;;;;;;;215.88;36.95;;;;;;;5.75;93.26;99632.94;6195020;23;20008;-69
2020/12/26 01:30:53;;;;;;;162.38;32.53;;;;;;;5.90;93.57;99642.16;6193502;23;20332;-67
2020/12/26 01:33:18;;;;;;;135.43;33.13;;;;;;;6.05;92.35;99651.31;6194335;23;20007;-68
2020/12/26 01:35:44;;;;;;;165.30;33.85;;;;;;;5.94;92.84;99643.53;6193072;23;20028;-68
2020/12/26 01:38:09;;;;;;;138.50;29.45;;;;;;;6.01;92.26;99626.25;6192795;23;20012;-67
2020/12/26 01:40:35;;;;;;;102.57;31.88;;;;;;;5.94;91.75;99640.09;6194732;23;20012;-67
2020/12/26 01:43:02;;;;;;;108.93;31.73;;;;;;;5.99;91.22;99643.13;6193201;23;20024;-67
2020/12/26 01:45:27;;;;;;;158.05;32.45;;;;;;;6.07;91.50;99623.09;6194870;23;20007;-68
2020/12/26 01:47:53;;;;;;;158.00;35.28;;;;;;;6.06;91.47;99610.91;6193292;23;20021;-69
2020/12/26 01:50:19;;;;;;;127.38;36.78;;;;;;;6.01;90.00;99613.13;6194917;23;20001;-67
2020/12/26 01:52:45;;;;;;;135.07;34.97;;;;;;;5.90;92.12;99605.34;6193384;23;20295;-67
2020/12/26 01:55:13;;;;;;;135.40;33.80;;;;;;;5.97;91.61;99617.00;6194797;23;20040;-69
2020/12/26 01:57:49;;;;;;;189.37;37.10;;;;;;;5.84;93.15;99610.28;6193185;23;20051;-67
2020/12/26 02:00:14;;;;;;;146.85;35.47;;;;;;;5.84;92.55;99621.63;6194822;23;20012;-67
2020/12/26 02:02:41;;;;;;;156.13;37.70;;;;;;;5.73;92.93;99619.13;6193111;23;20100;-67
2020/12/26 02:05:06;;;;;;;111.93;35.28;;;;;;;5.79;92.74;99610.69;6194207;23;20039;-67
2020/12/26 02:07:32;;;;;;;104.43;36.55;;;;;;;5.87;92.48;99607.41;6193728;23;20001;-67
2020/12/26 02:09:57;;;;;;;139.82;38.25;;;;;;;5.74;92.56;99608.47;6194038;23;20001;-67
2020/12/26 02:12:23;;;;;;;153.48;38.33;;;;;;;5.71;93.11;99608.75;6193855;23;20305;-67
2020/12/26 02:14:48;;;;;;;132.80;33.60;;;;;;;5.92;92.18;99602.59;6193497;23;20001;-68
2020/12/26 02:17:14;;;;;;;198.50;38.38;;;;;;;5.96;91.42;99589.03;6194014;23;20016;-67
2020/12/26 02:19:39;;;;;;;210.88;39.83;;;;;;;6.06;90.37;99591.69;6193075;23;20001;-68
2020/12/26 02:22:05;;;;;;;147.85;34.97;;;;;;;6.31;88.67;99599.06;6194425;23;20005;-68
2020/12/26 02:24:31;;;;;;;156.40;34.63;;;;;;;6.20;88.50;99608.84;6192668;23;20001;-67
2020/12/26 02:26:56;;;;;;;110.07;34.63;;;;;;;5.97;89.97;99613.53;6194968;23;20390;-67
2020/12/26 02:29:22;;;;;;;171.43;35.88;;;;;;;6.27;89.14;99621.34;6192783;23;20024;-68
2020/12/26 02:31:47;;;;;;;178.40;33.37;;;;;;;6.31;87.34;99617.47;6194402;23;20008;-66
2020/12/26 02:34:13;;;;;;;171.50;34.40;;;;;;;6.07;87.53;99622.25;6192837;23;20291;-65
2020/12/26 02:36:38;;;;;;;197.53;36.63;;;;;;;5.68;89.31;99613.44;6194867;23;20005;-64
2020/12/26 02:39:05;;;;;;;185.53;35.77;;;;;;;5.64;90.52;99619.94;6193061;23;20014;-66
2020/12/26 02:41:31;;;;;;;167.93;36.03;;;;;;;5.52;90.40;99615.72;6194911;23;20032;-67
2020/12/26 02:43:57;;;;;;;203.50;35.63;;;;;;;5.12;92.39;99616.50;6192907;23;20005;-67
2020/12/26 02:46:22;;;;;;;179.07;36.03;;;;;;;4.93;94.16;99613.78;6194790;23;20175;-68
2020/12/26 02:48:48;;;;;;;188.83;37.10;;;;;;;4.68;95.77;99610.59;6192867;23;20013;-69
2020/12/26 02:51:13;;;;;;;188.87;37.90;;;;;;;4.57;96.74;99609.81;6194713;23;20024;-67
2020/12/26 02:53:39;;;;;;;196.07;38.70;;;;;;;4.51;96.81;99605.06;6193345;23;20061;-67
2020/12/26 02:56:04;;;;;;;228.13;37.50;;;;;;;4.58;96.73;99611.47;6194045;23;20020;-68
2020/12/26 02:58:30;;;;;;;156.73;34.77;;;;;;;4.53;97.22;99624.13;6193462;23;20033;-67
2020/12/26 03:00:55;;;;;;;246.07;37.53;;;;;;;4.57;97.93;99618.50;6193562;23;20052;-68
2020/12/26 03:03:21;;;;;;;213.13;37.77;;;;;;;4.62;96.52;99618.97;6194183;23;20184;-67
2020/12/26 03:05:46;;;;;;;321.47;41.47;;;;;;;4.62;98.09;99623.38;6193060;23;20005;-68
2020/12/26 03:08:12;;;;;;;273.77;38.50;;;;;;;4.71;98.94;99626.06;6194538;23;20024;-68
2020/12/26 03:10:37;;;;;;;232.17;37.97;;;;;;;4.76;98.44;99629.13;6191466;23;20234;-69
2020/12/26 03:13:03;;;;;;;155.03;37.40;;;;;;;4.92;97.95;99625.22;6194517;23;20009;-64
2020/12/26 03:15:28;;;;;;;187.17;34.87;;;;;;;4.86;97.43;99629.19;6192705;23;20025;-64
2020/12/26 03:17:53;;;;;;;149.50;32.13;;;;;;;5.11;95.47;99630.59;6192807;23;20031;-66
2020/12/26 03:20:19;;;;;;;126.30;34.10;;;;;;;5.11;95.18;99623.53;6192781;23;20056;-66
2020/12/26 03:22:44;;;;;;;212.80;36.42;;;;;;;5.29;95.22;99628.22;6193973;23;20194;-64
2020/12/26 03:25:11;;;;;;;87.80;31.00;;;;;;;5.42;93.69;99615.69;6192798;23;20056;-65
2020/12/26 03:27:36;;;;;;;201.27;33.33;;;;;;;5.41;93.63;99619.28;6194132;23;20047;-64
2020/12/26 03:30:03;;;;;;;146.03;32.40;;;;;;;5.40;93.43;99631.59;6192601;23;20005;-65
2020/12/26 03:32:28;;;;;;;214.07;32.03;;;;;;;5.44;93.27;99624.28;6194024;23;20009;-64
2020/12/26 03:34:53;;;;;;;174.93;34.07;;;;;;;5.53;92.64;99626.09;6193257;23;20053;-65
2020/12/26 03:37:19;;;;;;;145.00;34.70;;;;;;;5.53;92.85;99625.28;6193513;23;20009;-64
2020/12/26 03:39:44;;;;;;;210.87;43.47;;;;;;;5.60;92.32;99621.16;6193543;23;20028;-66
2020/12/26 03:42:11;;;;;;;175.17;37.23;;;;;;;5.60;92.30;99623.78;6192067;23;20055;-66
2020/12/26 03:44:38;;;;;;;176.87;34.80;;;;;;;5.61;92.51;99631.53;6192997;23;20072;-65
2020/12/26 03:47:09;;;;;;;158.73;33.97;;;;;;;5.80;91.07;99632.56;6193006;23;20236;-65
2020/12/26 03:49:34;;;;;;;156.33;32.20;;;;;;;5.73;91.62;99625.22;6193760;23;20008;-66
2020/12/26 03:52:00;;;;;;;167.27;34.37;;;;;;;5.70;89.82;99599.19;6192734;23;20005;-65
2020/12/26 03:54:26;;;;;;;244.52;34.22;;;;;;;5.85;88.37;99609.31;6194668;23;20225;-64
2020/12/26 03:56:52;;;;;;;175.90;32.13;;;;;;;5.82;88.01;99607.81;6194258;23;19997;-64
2020/12/26 03:59:17;;;;;;;229.27;32.40;;;;;;;5.69;88.92;99609.84;6195905;23;20001;-66
2020/12/26 04:01:43;;;;;;;166.83;30.13;;;;;;;5.62;90.17;99613.97;6193907;23;20005;-66
2020/12/26 04:04:13;;;;;;;176.57;31.43;;;;;;;5.64;88.89;99607.63;6194767;23;20262;-64
2020/12/26 04:06:39;;;;;;;140.63;29.57;;;;;;;5.29;91.22;99607.22;6194802;23;20036;-67
2020/12/26 04:09:04;;;;;;;235.07;35.20;;;;;;;5.34;91.03;99608.47;6196043;23;20309;-67
2020/12/26 04:11:29;;;;;;;196.43;34.53;;;;;;;5.21;90.88;99615.75;6194775;23;20005;-67
2020/12/26 04:13:55;;;;;;;155.30;35.00;;;;;;;4.97;93.00;99609.94;6195696;23;20202;-67
2020/12/26 04:16:20;;;;;;;197.47;34.67;;;;;;;4.73;94.25;99604.94;6193973;23;20275;-67
2020/12/26 04:18:46;;;;;;;231.23;35.27;;;;;;;4.54;95.69;99604.81;6195108;23;20035;-67
2020/12/26 04:21:11;;;;;;;157.97;39.33;;;;;;;4.39;97.57;99606.91;6194645;23;19997;-67
2020/12/26 04:23:37;;;;;;;186.60;36.23;;;;;;;4.56;97.89;99597.66;6194915;23;20168;-68
2020/12/26 04:26:03;;;;;;;175.10;35.80;;;;;;;4.54;97.27;99599.59;6194604;23;20048;-68
2020/12/26 04:28:28;;;;;;;193.17;35.37;;;;;;;4.46;97.63;99603.66;6195013;23;20047;-68
2020/12/26 04:30:54;;;;;;;168.53;35.87;;;;;;;4.64;96.73;99609.19;6194166;23;20008;-68
2020/12/26 04:33:20;;;;;;;182.70;38.23;;;;;;;4.58;96.45;99614.09;6194535;23;20005;-68
2020/12/26 04:35:45;;;;;;;150.03;33.80;;;;;;;4.50;97.18;99606.88;6195599;23;20016;-68
2020/12/26 04:38:11;;;;;;;235.53;37.00;;;;;;;4.49;97.47;99610.44;6194214;23;20009;-67
2020/12/26 04:40:37;;;;;;;203.10;35.60;;;;;;;4.55;97.73;99611.72;6195854;23;20075;-68
2020/12/26 04:43:06;;;;;;;176.67;35.27;;;;;;;4.63;97.05;99604.06;6194391;23;20015;-67
2020/12/26 04:45:32;;;;;;;151.03;33.70;;;;;;;4.61;96.56;99598.09;6195895;23;20012;-67
2020/12/26 04:48:02;;;;;;;172.63;34.80;;;;;;;4.63;97.11;99604.06;6193510;23;20012;-68
2020/12/26 04:50:31;;;;;;;194.03;33.63;;;;;;;4.68;96.07;99609.75;6195205;23;20004;-68
2020/12/26 04:52:59;;;;;;;160.50;33.70;;;;;;;4.50;96.70;99599.00;6193702;23;20009;-68
2020/12/26 04:55:28;;;;;;;144.73;33.50;;;;;;;4.38;97.83;99600.00;6195563;23;20008;-68
2020/12/26 04:58:10;;;;;;;152.87;35.73;;;;;;;4.36;98.00;99597.53;6193734;23;20012;-67
2020/12/26 05:00:36;;;;;;;168.20;34.40;;;;;;;4.27;98.37;99598.28;6194656;23;20064;-67
2020/12/26 05:03:06;;;;;;;206.10;36.60;;;;;;;4.38;98.84;99600.00;6194688;23;20005;-68
2020/12/26 05:05:37;;;;;;;171.43;34.00;;;;;;;4.34;98.99;99609.91;6192383;23;20068;-67
2020/12/26 05:08:07;;;;;;;160.10;36.77;;;;;;;4.41;98.73;99611.06;6195650;23;20226;-68
2020/12/26 05:10:33;;;;;;;152.40;33.93;;;;;;;4.59;98.16;99611.34;6193053;23;20013;-68
2020/12/26 05:13:00;;;;;;;174.00;35.83;;;;;;;4.63;96.44;99610.13;6194445;23;20009;-68
2020/12/26 05:15:26;;;;;;;166.17;36.03;;;;;;;4.47;96.82;99615.81;6191964;23;20019;-68
2020/12/26 05:17:52;;;;;;;152.80;32.97;;;;;;;4.41;97.71;99621.56;6193478;23;20009;-68
2020/12/26 05:20:18;;;;;;;173.73;37.60;;;;;;;4.41;97.70;99632.06;6195006;23;20009;-68
2020/12/26 05:22:43;;;;;;;151.87;35.03;;;;;;;4.49;97.70;99624.38;6193287;23;20191;-67
2020/12/26 05:25:10;;;;;;;147.83;36.83;;;;;;;4.50;97.70;99625.22;6194897;23;20024;-67
2020/12/26 05:27:36;;;;;;;165.37;34.67;;;;;;;4.54;97.54;99623.19;6193551;23;20366;-67
2020/12/26 05:30:04;;;;;;;180.13;35.57;;;;;;;4.65;97.80;99613.47;6195105;23;20194;-68
2020/12/26 05:32:31;;;;;;;186.50;36.67;;;;;;;4.66;97.88;99616.91;6193430;23;20234;-67
2020/12/26 05:35:07;;;;;;;172.13;37.60;;;;;;;4.63;98.34;99604.06;6195049;23;20178;-67
2020/12/26 05:37:35;;;;;;;151.73;34.23;;;;;;;4.90;97.67;99596.50;6193369;23;20009;-64
2020/12/26 05:40:01;;;;;;;164.47;33.50;;;;;;;4.90;97.47;99606.16;6194976;23;20052;-66
2020/12/26 05:42:28;;;;;;;143.13;31.97;;;;;;;4.90;97.17;99607.00;6193374;23;20012;-65
2020/12/26 05:45:04;;;;;;;149.17;30.20;;;;;;;4.90;95.29;99617.50;6193233;23;20072;-66
2020/12/26 05:47:30;;;;;;;99.10;29.23;;;;;;;5.08;93.50;99621.19;6193575;23;20117;-66
2020/12/26 05:49:56;;;;;;;141.10;28.67;;;;;;;4.91;93.83;99610.44;6194594;23;20012;-66
2020/12/26 05:52:23;;;;;;;78.90;28.07;;;;;;;4.93;93.87;99622.47;6192012;23;20244;-66
2020/12/26 05:54:51;;;;;;;133.73;29.53;;;;;;;4.89;94.23;99615.81;6194555;23;20027;-65
2020/12/26 05:57:18;;;;;;;122.47;30.87;;;;;;;5.17;91.98;99627.44;6193296;23;20039;-64
2020/12/26 05:59:49;;;;;;;71.07;26.67;;;;;;;4.92;93.00;99633.94;6194640;23;20005;-65
2020/12/26 06:02:23;;;;;;;120.30;29.83;;;;;;;5.20;92.27;99629.84;6193334;23;20012;-65
2020/12/26 06:05:04;;;;;;;99.47;27.10;;;;;;;4.96;93.27;99630.09;6194189;23;20005;-64
2020/12/26 06:07:34;;;;;;;92.90;30.40;;;;;;;4.99;93.94;99636.88;6193247;23;20005;-64
2020/12/26 06:10:02;;;;;;;107.87;30.20;;;;;;;5.20;93.06;99645.59;6194312;23;20020;-65
2020/12/26 06:12:29;;;;;;;108.67;30.13;;;;;;;5.07;94.15;99652.81;6193464;23;20013;-66
2020/12/26 06:14:56;;;;;;;116.27;34.53;;;;;;;5.16;94.39;99652.03;6194150;23;20005;-66
2020/12/26 06:17:32;;;;;;;102.33;31.43;;;;;;;5.39;93.14;99636.97;6193311;23;20020;-66
2020/12/26 06:19:59;;;;;;;124.13;33.47;;;;;;;5.36;93.07;99656.44;6193992;23;20001;-65
2020/12/26 06:22:25;;;;;;;89.35;29.33;;;;;;;5.42;93.39;99652.47;6193609;23;20198;-66
2020/12/26 06:24:53;;;;;;;97.35;31.52;;;;;;;5.47;92.81;99652.91;6193666;23;20001;-65
2020/12/26 06:27:23;;;;;;;86.72;29.08;;;;;;;5.38;92.09;99656.31;6194197;23;20009;-65
2020/12/26 06:29:48;;;;;;;117.88;30.38;;;;;;;5.69;90.64;99651.88;6192093;23;20001;-65
2020/12/26 06:32:14;;;;;;;103.45;32.47;;;;;;;5.57;91.40;99660.81;6193628;23;20179;-65
2020/12/26 06:34:41;;;;;;;111.53;34.00;;;;;;;5.44;92.43;99664.50;6193383;23;20004;-64
2020/12/26 06:37:11;;;;;;;101.72;34.70;;;;;;;5.67;91.26;99666.94;6194294;23;20009;-66
2020/12/26 06:39:37;;;;;;;96.18;34.20;;;;;;;5.44;91.68;99672.38;6192998;23;20063;-68
2020/12/26 06:42:11;;;;;;;81.20;32.17;;;;;;;5.42;92.95;99663.78;6193296;23;20013;-68
2020/12/26 06:44:38;;;;;;;102.50;29.50;;;;;;;5.62;91.21;99648.13;6192662;23;20027;-67
2020/12/26 06:47:04;;;;;;;68.20;28.67;;;;;;;5.56;90.90;99667.03;6194504;23;20009;-69
2020/12/26 06:49:29;;;;;;;77.27;31.00;;;;;;;5.57;91.01;99659.03;6192620;23;20111;-68
2020/12/26 06:51:56;;;;;;;89.43;27.73;;;;;;;5.50;90.96;99664.94;6194650;23;20194;-67
2020/12/26 06:54:50;;;;;;;83.45;31.92;;;;;;;5.54;91.32;99659.28;6192473;23;20008;-67
2020/12/26 06:57:38;;;;;;;70.78;28.27;;;;;;;5.74;90.13;99661.03;6168965;23;20013;-68
2020/12/26 07:00:27;;;;;;;121.93;33.50;;;;;;;5.71;89.83;99663.91;6192455;23;20009;-67
2020/12/26 07:03:14;;;;;;;127.00;38.42;;;;;;;5.82;89.53;99675.28;6194247;23;20072;-67
2020/12/26 07:05:40;;;;;;;65.28;27.30;;;;;;;5.65;91.00;99682.00;6192500;23;20009;-69
2020/12/26 07:08:05;;;;;;;65.45;26.17;;;;;;;5.62;90.99;99696.22;6194101;23;20013;-67
2020/12/26 07:10:34;;;;;;;66.85;27.88;;;;;;;5.38;91.21;99665.03;6191501;23;20032;-68
2020/12/26 07:13:00;;;;;;;70.05;28.90;;;;;;;5.55;91.26;99683.75;6192798;23;20005;-67
2020/12/26 07:15:34;;;;;;;71.30;30.77;;;;;;;5.52;91.08;99671.72;6192920;23;20005;-67
2020/12/26 07:18:23;;;;;;;60.78;30.13;;;;;;;5.53;90.30;99688.31;6194227;23;20016;-68
2020/12/26 07:20:53;;;;;;;144.13;48.72;;;;;;;5.69;90.36;99684.22;6174855;23;20016;-67
2020/12/26 07:23:19;;;;;;;318.27;92.13;;;;;;;5.86;89.09;99689.81;6194057;23;20329;-67
2020/12/26 07:25:47;;;;;;;184.60;53.45;;;;;;;5.60;90.79;99698.16;6192877;23;20009;-68
2020/12/26 07:28:13;;;;;;;158.65;49.42;;;;;;;5.71;90.24;99691.97;6194435;23;20321;-69
2020/12/26 07:30:39;;;;;;;154.55;51.28;;;;;;;5.86;89.57;99697.72;6194080;23;20056;-68
2020/12/26 07:33:04;;;;;;;240.27;54.78;;;;;;;5.78;90.33;99693.94;6196408;23;20043;-68
2020/12/26 07:35:32;;;;;;;169.70;53.28;;;;;;;5.88;90.75;99690.53;6194613;23;20029;-67
2020/12/26 07:37:58;;;;;;;173.40;50.85;;;;;;;6.02;90.38;99700.69;6196089;23;20004;-68
2020/12/26 07:40:25;;;;;;;215.02;54.70;;;;;;;6.04;91.21;99699.59;6194910;23;20221;-67
2020/12/26 07:42:52;;;;;;;190.10;56.47;;;;;;;6.03;90.78;99703.19;6196237;23;20001;-67
2020/12/26 07:45:22;;;;;;;221.32;55.13;;;;;;;5.89;90.50;99710.56;6194569;23;20008;-67
2020/12/26 07:47:53;;;;;;;208.20;60.05;;;;;;;5.83;91.57;99719.00;6196121;23;20027;-68
2020/12/26 07:50:21;;;;;;;207.68;63.55;;;;;;;5.95;91.08;99715.34;6194954;23;20008;-67
2020/12/26 07:52:51;;;;;;;343.90;70.20;;;;;;;6.06;90.99;99704.72;6195196;23;20008;-69
2020/12/26 07:55:17;;;;;;;234.02;71.20;;;;;;;6.07;91.77;99701.94;6194400;23;20059;-67
2020/12/26 07:57:44;;;;;;;245.50;62.72;;;;;;;6.15;91.28;99709.16;6196115;23;20005;-67
2020/12/26 08:00:34;;;;;;;177.32;50.60;;;;;;;6.23;91.83;99703.22;6194616;23;20187;-67
2020/12/26 08:03:01;;;;;;;207.55;48.08;;;;;;;6.33;90.43;99710.19;6195893;23;20008;-67
2020/12/26 08:05:30;;;;;;;159.60;48.05;;;;;;;6.37;90.26;99708.97;6194459;23;20001;-68
2020/12/26 08:07:56;;;;;;;291.23;58.15;;;;;;;6.19;90.04;99713.19;6195727;23;20001;-68
2020/12/26 08:10:22;;;;;;;234.80;62.42;;;;;;;6.16;90.82;99710.81;6194081;23;20001;-67
2020/12/26 08:12:55;;;;;;;264.52;70.63;;;;;;;6.21;91.14;99713.88;6194660;23;20028;-68
2020/12/26 08:15:23;;;;;;;240.45;65.05;;;;;;;6.27;91.05;99715.19;6194369;23;20275;-68
2020/12/26 08:17:53;;;;;;;286.48;66.20;;;;;;;6.23;91.23;99722.47;6194788;23;20005;-67
2020/12/26 08:20:20;;;;;;;184.48;63.45;;;;;;;6.41;91.24;99706.91;6195619;23;20056;-68
2020/12/26 08:22:46;;;;;;;195.30;60.90;;;;;;;6.48;90.82;99717.69;6192837;23;20361;-68
2020/12/26 08:25:12;;;;;;;168.15;56.60;;;;;;;6.40;91.45;99713.13;6195446;23;20028;-68
2020/12/26 08:27:39;;;;;;;167.80;55.10;;;;;;;6.47;90.08;99706.34;6194373;23;20471;-68
2020/12/26 08:30:17;;;;;;;170.43;53.30;;;;;;;6.38;91.09;99705.38;6195920;23;20202;-67
2020/12/26 08:33:04;;;;;;;141.82;54.35;;;;;;;6.51;89.81;99702.47;6194299;23;20350;-68
2020/12/26 08:35:30;;;;;;;150.65;54.13;;;;;;;6.40;90.15;99710.50;6195433;23;20048;-68
2020/12/26 08:38:23;;;;;;;144.38;51.42;;;;;;;6.33;90.38;99712.84;6194071;23;20005;-67
2020/12/26 08:40:55;;;;;;;147.98;65.28;;;;;;;6.38;89.91;99708.00;6180104;23;20005;-67
2020/12/26 08:43:20;;;;;;;140.43;57.70;;;;;;;6.32;90.14;99711.16;6194225;23;20063;-68
2020/12/26 08:45:46;;;;;;;159.38;53.47;;;;;;;6.25;90.77;99706.59;6193667;23;20303;-68
2020/12/26 08:48:23;;;;;;;136.75;50.42;;;;;;;6.29;90.97;99715.88;6192557;23;20005;-67
2020/12/26 08:51:01;;;;;;;131.57;45.83;;;;;;;6.28;90.80;99701.88;6195016;23;20008;-69
2020/12/26 08:53:26;;;;;;;158.63;53.22;;;;;;;6.39;90.27;99690.41;6194053;23;20001;-68
2020/12/26 08:55:53;;;;;;;161.50;54.58;;;;;;;6.45;90.16;99689.03;6195478;23;20001;-67
2020/12/26 08:58:30;;;;;;;139.68;48.15;;;;;;;6.47;89.60;99690.56;6192408;23;20009;-67
2020/12/26 09:01:00;;;;;;;138.98;52.13;;;;;;;6.76;87.54;99685.31;6195698;23;20047;-67
2020/12/26 09:03:28;;;;;;;147.32;52.83;;;;;;;6.63;88.06;99682.97;6193811;23;20008;-68
2020/12/26 09:05:56;;;;;;;184.73;77.78;;;;;;;6.39;89.63;99691.25;6195727;23;20008;-68
2020/12/26 09:08:32;;;;;;;145.52;61.42;;;;;;;6.63;89.24;99692.66;6193766;23;20001;-67
2020/12/26 09:11:02;;;;;;;148.90;51.55;;;;;;;6.62;88.43;99691.81;6195646;23;20001;-68
2020/12/26 09:13:39;;;;;;;156.90;51.00;;;;;;;6.59;89.10;99691.25;6192768;23;20000;-68
2020/12/26 09:16:12;;;;;;;131.93;49.03;;;;;;;6.34;88.90;99682.09;6193468;23;20064;-68
2020/12/26 09:18:38;;;;;;;132.13;49.65;;;;;;;6.18;91.49;99685.22;6193018;23;20128;-68
2020/12/26 09:21:05;;;;;;;127.10;48.80;;;;;;;6.34;91.37;99682.09;6195224;23;20005;-68
2020/12/26 09:23:36;;;;;;;140.45;50.08;;;;;;;6.51;90.58;99678.81;6193539;23;20183;-68
2020/12/26 09:26:10;;;;;;;147.23;50.63;;;;;;;6.58;90.41;99671.19;6195347;23;20001;-68
2020/12/26 09:28:48;;;;;;;170.75;54.75;;;;;;;6.67;88.41;99684.34;6193813;23;20012;-67
2020/12/26 09:31:16;;;;;;;160.82;50.50;;;;;;;6.51;88.99;99684.06;6193739;23;20009;-67
2020/12/26 09:33:41;;;;;;;153.10;51.05;;;;;;;6.27;90.96;99679.19;6193575;23;20005;-68
2020/12/26 09:36:11;;;;;;;180.10;57.27;;;;;;;6.26;90.86;99671.44;6195336;23;20028;-67
2020/12/26 09:38:37;;;;;;;157.93;53.28;;;;;;;6.14;92.65;99670.69;6192541;23;20004;-68
2020/12/26 09:41:40;;;;;;;152.75;51.20;;;;;;;5.90;93.40;99662.34;6194585;23;20048;-68
2020/12/26 09:44:05;;;;;;;147.87;51.40;;;;;;;5.81;94.37;99655.22;6193401;23;20215;-67
2020/12/26 09:46:31;;;;;;;154.73;48.27;;;;;;;5.80;93.55;99649.16;6194150;23;20001;-67
2020/12/26 09:48:56;;;;;;;132.00;46.37;;;;;;;5.67;95.16;99644.13;6194124;23;20075;-66
2020/12/26 09:51:22;;;;;;;169.50;55.30;;;;;;;5.61;97.58;99657.78;6192700;23;20047;-67
2020/12/26 09:53:47;;;;;;;185.83;57.07;;;;;;;5.64;97.13;99659.31;6194554;23;20028;-68
2020/12/26 09:56:13;;;;;;;186.53;59.90;;;;;;;5.74;98.31;99661.03;6193700;23;20001;-67
2020/12/26 09:58:44;;;;;;;178.97;63.00;;;;;;;5.87;95.96;99657.31;6194831;23;20218;-67
2020/12/26 10:01:14;;;;;;;196.03;66.87;;;;;;;5.85;95.55;99659.25;6193796;23;20001;-68
2020/12/26 10:03:39;;;;;;;210.80;65.13;;;;;;;5.87;95.49;99662.56;6195174;23;20013;-67
2020/12/26 10:06:11;;;;;;;178.43;61.35;;;;;;;6.02;94.21;99651.59;6193296;23;20008;-66
2020/12/26 10:08:37;;;;;;;192.73;64.03;;;;;;;6.11;94.30;99649.94;6194624;23;20032;-65
2020/12/26 10:11:03;;;;;;;178.25;61.58;;;;;;;6.17;95.02;99656.44;6193639;23;20009;-65
2020/12/26 10:13:28;;;;;;;181.70;57.53;;;;;;;6.22;94.02;99660.34;6192591;23;20302;-65
2020/12/26 10:15:54;;;;;;;154.67;53.80;;;;;;;6.09;95.07;99646.63;6193348;23;20039;-66
2020/12/26 10:18:19;;;;;;;169.50;56.10;;;;;;;6.13;94.84;99644.53;6194486;23;20020;-67
2020/12/26 10:20:45;;;;;;;160.57;55.63;;;;;;;6.10;95.46;99635.13;6193895;23;20016;-66
2020/12/26 10:23:10;;;;;;;144.70;51.17;;;;;;;6.23;96.01;99634.88;6193704;23;20040;-67
2020/12/26 10:25:36;;;;;;;155.98;53.28;;;;;;;6.37;96.13;99632.69;6194301;23;20005;-67
2020/12/26 10:28:02;;;;;;;204.18;64.40;;;;;;;6.67;93.96;99639.63;6193605;23;20069;-68
2020/12/26 10:30:28;;;;;;;170.77;57.28;;;;;;;6.86;93.06;99654.56;6194023;23;20012;-67
2020/12/26 10:32:53;;;;;;;192.88;59.85;;;;;;;6.88;92.65;99664.94;6192937;23;20004;-68
2020/12/26 10:35:19;;;;;;;212.95;66.00;;;;;;;6.83;93.49;99665.34;6194660;23;20001;-68
2020/12/26 10:37:44;;;;;;;267.05;69.18;;;;;;;7.02;92.28;99667.13;6192290;23;20060;-68
2020/12/26 10:40:10;;;;;;;243.88;72.15;;;;;;;7.26;90.92;99671.94;6194579;23;20299;-68
2020/12/26 10:42:35;;;;;;;232.60;68.32;;;;;;;7.28;90.20;99678.75;6192867;23;20283;-68
2020/12/26 10:45:01;;;;;;;219.77;70.80;;;;;;;7.07;91.24;99677.25;6194464;23;20052;-67
2020/12/26 10:47:26;;;;;;;193.80;66.40;;;;;;;6.99;92.73;99670.03;6192850;23;20001;-67
2020/12/26 10:49:52;;;;;;;181.55;62.55;;;;;;;7.04;92.08;99658.13;6194303;23;20008;-67
2020/12/26 10:52:17;;;;;;;186.45;60.45;;;;;;;7.17;90.66;99634.13;6193019;23;20023;-67
2020/12/26 10:54:43;;;;;;;188.15;61.65;;;;;;;7.25;91.37;99638.66;6194034;23;20005;-67
2020/12/26 10:57:08;;;;;;;174.93;61.00;;;;;;;7.44;89.00;99628.09;6192863;23;20033;-68
2020/12/26 10:59:34;;;;;;;186.13;61.20;;;;;;;7.32;90.13;99629.25;6194040;23;20004;-67
2020/12/26 11:02:01;;;;;;;166.88;59.22;;;;;;;7.27;90.18;99642.00;6193366;23;20001;-67
2020/12/26 11:04:26;;;;;;;175.95;60.47;;;;;;;7.26;89.89;99641.16;6195535;23;20044;-67
2020/12/26 11:06:52;;;;;;;176.10;60.47;;;;;;;7.12;90.63;99648.69;6195800;23;20001;-67
2020/12/26 11:09:17;;;;;;;177.63;61.50;;;;;;;7.23;90.23;99661.69;6195140;23;20024;-67
2020/12/26 11:11:51;;;;;;;186.25;66.63;;;;;;;7.16;91.88;99664.06;6195995;23;20001;-67
2020/12/26 11:14:17;;;;;;;184.55;66.47;;;;;;;7.20;93.41;99661.97;6195106;23;20340;-67
2020/12/26 11:16:50;;;;;;;193.52;66.28;;;;;;;7.32;93.07;99653.78;6195803;23;20001;-68
2020/12/26 11:19:16;;;;;;;196.23;68.30;;;;;;;7.38;92.63;99649.75;6194914;23;20007;-68